createdAt,value
2022-11-27T00:02:23.919Z,10.60
2022-11-27T00:04:51.928Z,10.70
2022-11-27T00:07:21.983Z,10.60
2022-11-27T00:09:55.831Z,10.70
2022-11-27T00:12:29.511Z,10.70
2022-11-27T00:15:18.907Z,10.60
2022-11-27T00:17:47.098Z,10.60
2022-11-27T00:20:15.576Z,10.60
2022-11-27T00:22:46.038Z,10.60
2022-11-27T00:25:23.428Z,10.60
2022-11-27T00:27:54.423Z,10.60
2022-11-27T00:30:22.456Z,10.60
2022-11-27T00:32:53.218Z,10.50
2022-11-27T00:35:21.231Z,10.60
2022-11-27T00:37:52.323Z,10.60
2022-11-27T00:40:23.036Z,10.40
2022-11-27T00:42:50.750Z,10.50
2022-11-27T00:45:18.909Z,10.50
2022-11-27T00:47:47.000Z,10.50
2022-11-27T00:50:15.249Z,10.40
2022-11-27T00:52:43.623Z,10.40
2022-11-27T00:55:12.861Z,10.40
2022-11-27T00:57:46.360Z,10.40
2022-11-27T01:00:15.068Z,10.40
2022-11-27T01:02:43.741Z,10.40
2022-11-27T01:05:11.644Z,10.30
2022-11-27T01:07:39.443Z,10.30
2022-11-27T01:10:10.580Z,10.30
2022-11-27T01:12:38.564Z,10.40
2022-11-27T01:15:06.968Z,10.30
2022-11-27T01:17:36.233Z,10.30
2022-11-27T01:20:05.020Z,10.30
2022-11-27T01:22:33.815Z,10.30
2022-11-27T01:25:01.506Z,10.30
2022-11-27T01:27:30.373Z,10.30
2022-11-27T01:29:58.344Z,10.30
2022-11-27T01:32:29.174Z,10.40
2022-11-27T01:34:59.970Z,10.30
2022-11-27T01:37:29.619Z,10.40
2022-11-27T01:39:57.394Z,10.40
2022-11-27T01:42:25.276Z,10.40
2022-11-27T01:44:56.126Z,10.40
2022-11-27T01:47:35.598Z,10.40
2022-11-27T01:50:09.754Z,10.40
2022-11-27T01:52:46.801Z,10.40
2022-11-27T01:55:22.310Z,10.40
2022-11-27T01:57:58.124Z,10.40
2022-11-27T02:00:26.693Z,10.40
2022-11-27T02:02:54.627Z,10.40
2022-11-27T02:05:31.660Z,10.40
2022-11-27T02:08:03.057Z,10.40
2022-11-27T02:10:52.405Z,10.40
2022-11-27T02:13:26.095Z,10.50
2022-11-27T02:15:59.866Z,10.50
2022-11-27T02:18:44.929Z,10.50
2022-11-27T02:21:42.152Z,10.50
2022-11-27T02:24:48.085Z,10.50
2022-11-27T02:27:56.548Z,10.50
2022-11-27T02:30:24.326Z,10.50
2022-11-27T02:33:01.054Z,10.50
2022-11-27T02:35:38.563Z,10.50
2022-11-27T02:38:14.020Z,10.60
2022-11-27T02:40:54.861Z,10.60
2022-11-27T02:43:30.785Z,10.60
2022-11-27T02:46:04.141Z,10.60
2022-11-27T02:48:39.514Z,10.70
2022-11-27T02:51:09.568Z,10.70
2022-11-27T02:53:44.294Z,10.70
2022-11-27T02:56:17.334Z,10.70
2022-11-27T02:58:50.930Z,10.70
2022-11-27T03:01:22.271Z,10.70
2022-11-27T03:03:54.850Z,10.80
2022-11-27T03:06:33.945Z,10.80
2022-11-27T03:09:14.023Z,10.80
2022-11-27T03:11:46.326Z,10.80
2022-11-27T03:14:15.053Z,10.90
2022-11-27T03:17:03.772Z,10.90
2022-11-27T03:19:55.289Z,10.90
2022-11-27T03:22:23.331Z,10.90
2022-11-27T03:24:54.114Z,11.00
2022-11-27T03:27:34.623Z,11.00
2022-11-27T03:30:08.473Z,11.00
2022-11-27T03:32:39.470Z,11.00
2022-11-27T03:35:14.413Z,11.10
2022-11-27T03:37:46.535Z,11.10
2022-11-27T03:40:15.258Z,11.10
2022-11-27T03:43:21.493Z,11.10
2022-11-27T03:46:07.842Z,11.10
2022-11-27T03:48:43.168Z,11.20
2022-11-27T03:51:22.041Z,11.20
2022-11-27T03:54:05.112Z,11.20
2022-11-27T03:56:40.168Z,11.20
2022-11-27T03:59:15.193Z,11.20
2022-11-27T04:01:45.735Z,11.30
2022-11-27T04:04:16.630Z,11.30
2022-11-27T04:06:46.559Z,11.30
2022-11-27T04:09:21.924Z,11.30
2022-11-27T04:11:49.842Z,11.30
2022-11-27T04:14:26.547Z,11.30
2022-11-27T04:17:14.012Z,11.40
2022-11-27T04:19:44.922Z,11.30
2022-11-27T04:22:13.037Z,11.40
2022-11-27T04:24:46.379Z,11.40
2022-11-27T04:27:14.676Z,11.40
2022-11-27T04:29:42.669Z,11.40
2022-11-27T04:32:10.961Z,11.50
2022-11-27T04:34:39.011Z,11.40
2022-11-27T04:37:16.352Z,11.40
2022-11-27T04:39:44.283Z,11.50
2022-11-27T04:42:15.032Z,12.60
2022-11-27T04:44:43.230Z,11.50
2022-11-27T04:47:11.395Z,11.50
2022-11-27T04:49:39.380Z,11.50
2022-11-27T04:52:08.701Z,11.50
2022-11-27T04:57:24.020Z,11.50
2022-11-27T04:59:52.014Z,11.60
2022-11-27T05:02:21.000Z,11.60
2022-11-27T05:04:51.107Z,11.60
2022-11-27T05:07:18.922Z,11.60
2022-11-27T05:09:48.674Z,11.60
2022-11-27T05:12:20.339Z,11.60
2022-11-27T05:15:01.761Z,11.70
2022-11-27T05:17:40.733Z,11.70
2022-11-27T05:20:09.450Z,11.70
2022-11-27T05:22:37.689Z,11.70
2022-11-27T05:25:12.925Z,11.70
2022-11-27T05:27:41.386Z,11.70
2022-11-27T05:30:10.872Z,11.70
2022-11-27T05:32:41.958Z,11.70
2022-11-27T05:35:12.009Z,11.70
2022-11-27T05:37:41.232Z,11.70
2022-11-27T05:40:15.543Z,11.70
2022-11-27T05:42:47.129Z,11.80
2022-11-27T05:45:15.273Z,11.70
2022-11-27T05:47:43.216Z,11.70
2022-11-27T05:50:11.988Z,11.70
2022-11-27T05:52:40.016Z,11.70
2022-11-27T05:55:08.370Z,11.70
2022-11-27T05:57:39.420Z,11.70
2022-11-27T06:00:10.969Z,11.70
2022-11-27T06:02:41.786Z,11.70
2022-11-27T06:05:14.296Z,11.80
2022-11-27T06:07:45.053Z,11.70
2022-11-27T06:10:20.978Z,11.70
2022-11-27T06:12:49.905Z,11.70
2022-11-27T06:15:22.154Z,11.70
2022-11-27T06:17:57.887Z,11.80
2022-11-27T06:20:31.307Z,12.40
2022-11-27T06:23:09.810Z,11.70
2022-11-27T06:25:37.780Z,11.80
2022-11-27T06:28:08.709Z,11.80
2022-11-27T06:30:38.225Z,11.90
2022-11-27T06:33:09.702Z,11.80
2022-11-27T06:35:37.710Z,11.80
2022-11-27T06:38:09.089Z,11.80
2022-11-27T06:40:38.109Z,11.80
2022-11-27T06:43:08.264Z,11.80
2022-11-27T06:45:36.820Z,11.80
2022-11-27T06:48:09.492Z,11.80
2022-11-27T06:50:37.726Z,11.80
2022-11-27T06:53:08.477Z,11.80
2022-11-27T06:55:39.516Z,11.80
2022-11-27T06:58:14.284Z,11.90
2022-11-27T07:00:43.729Z,11.90
2022-11-27T07:03:12.245Z,11.80
2022-11-27T07:05:42.620Z,10.70
2022-11-27T07:09:19.065Z,11.80
2022-11-27T07:11:52.676Z,11.90
2022-11-27T07:14:35.383Z,11.80
2022-11-27T07:17:19.173Z,11.90
2022-11-27T07:19:56.610Z,11.80
2022-11-27T07:22:29.948Z,11.80
2022-11-27T07:24:58.276Z,11.80
2022-11-27T07:27:32.394Z,11.80
2022-11-27T07:30:15.625Z,11.80
2022-11-27T07:32:49.129Z,11.80
2022-11-27T07:35:27.185Z,11.80
2022-11-27T07:38:03.538Z,11.80
2022-11-27T07:40:37.688Z,11.80
2022-11-27T07:43:07.609Z,11.80
2022-11-27T07:45:40.151Z,11.80
2022-11-27T07:48:20.311Z,11.80
2022-11-27T07:50:48.552Z,11.90
2022-11-27T07:53:19.439Z,11.90
2022-11-27T07:55:51.553Z,11.90
2022-11-27T07:58:22.740Z,11.90
2022-11-27T08:00:50.956Z,11.90
2022-11-27T08:03:18.810Z,11.90
2022-11-27T08:05:53.200Z,11.90
2022-11-27T08:08:46.695Z,11.90
2022-11-27T08:11:55.740Z,11.90
2022-11-27T08:14:26.760Z,11.90
2022-11-27T08:17:14.056Z,12.20
2022-11-27T08:19:47.951Z,12.00
2022-11-27T08:22:24.020Z,11.90
2022-11-27T08:24:57.458Z,11.90
2022-11-27T08:27:40.497Z,12.00
2022-11-27T08:30:28.242Z,11.90
2022-11-27T08:33:02.243Z,12.00
2022-11-27T08:35:54.686Z,12.00
2022-11-27T08:38:36.644Z,12.00
2022-11-27T08:41:22.366Z,12.00
2022-11-27T08:43:51.280Z,12.00
2022-11-27T08:46:32.224Z,12.10
2022-11-27T08:49:51.496Z,12.00
2022-11-27T08:52:15.335Z,12.00
2022-11-27T08:54:57.559Z,12.10
2022-11-27T08:57:29.874Z,12.10
2022-11-27T09:00:07.252Z,12.10
2022-11-27T09:02:48.353Z,12.10
2022-11-27T09:05:16.774Z,12.10
2022-11-27T09:07:56.755Z,12.10
2022-11-27T09:10:32.976Z,12.10
2022-11-27T09:13:02.349Z,12.20
2022-11-27T09:15:31.444Z,12.10
2022-11-27T09:18:11.093Z,12.20
2022-11-27T09:20:40.762Z,12.10
2022-11-27T09:23:23.148Z,12.20
2022-11-27T09:26:11.962Z,12.20
2022-11-27T09:28:45.022Z,12.20
2022-11-27T09:31:15.678Z,12.20
2022-11-27T09:33:46.153Z,12.30
2022-11-27T09:36:20.060Z,12.20
2022-11-27T09:38:48.136Z,12.30
2022-11-27T09:41:59.010Z,12.30
2022-11-27T09:44:54.406Z,12.30
2022-11-27T09:48:02.537Z,12.30
2022-11-27T09:51:01.005Z,12.40
2022-11-27T09:53:53.780Z,12.40
2022-11-27T09:56:26.258Z,12.40
2022-11-27T09:59:05.152Z,12.40
2022-11-27T10:01:42.106Z,12.40
2022-11-27T10:04:17.041Z,12.40
2022-11-27T10:07:17.855Z,12.50
2022-11-27T10:10:21.896Z,12.50
2022-11-27T10:13:09.273Z,12.50
2022-11-27T10:16:00.309Z,12.70
2022-11-27T10:18:52.271Z,12.80
2022-11-27T10:21:58.816Z,12.90
2022-11-27T10:24:52.239Z,12.90
2022-11-27T10:27:55.945Z,13.80
2022-11-27T10:30:28.993Z,12.80
2022-11-27T10:33:05.006Z,12.80
2022-11-27T10:35:38.272Z,12.80
2022-11-27T10:38:25.276Z,12.90
2022-11-27T10:41:48.249Z,12.80
2022-11-27T10:44:55.516Z,12.90
2022-11-27T10:47:33.925Z,12.90
2022-11-27T10:50:02.153Z,12.90
2022-11-27T10:53:06.727Z,13.00
2022-11-27T10:55:56.148Z,13.00
2022-11-27T10:58:29.246Z,13.00
2022-11-27T11:01:03.090Z,13.10
2022-11-27T11:07:13.124Z,13.20
2022-11-27T11:09:48.767Z,13.20
2022-11-27T11:12:21.201Z,13.20
2022-11-27T11:15:01.805Z,13.20
2022-11-27T11:17:37.935Z,13.20
2022-11-27T11:20:23.101Z,13.30
2022-11-27T11:22:54.672Z,13.30
2022-11-27T11:28:52.926Z,13.40
2022-11-27T11:32:03.306Z,13.40
2022-11-27T11:35:16.943Z,13.40
2022-11-27T11:38:15.093Z,13.40
2022-11-27T11:41:38.461Z,13.30
2022-11-27T11:44:58.663Z,13.40
2022-11-27T11:47:41.893Z,13.30
2022-11-27T11:51:08.524Z,13.30
2022-11-27T11:54:17.621Z,13.30
2022-11-27T11:57:58.953Z,13.20
2022-11-27T12:01:25.448Z,13.20
2022-11-27T12:04:24.747Z,13.10
2022-11-27T12:07:48.979Z,13.20
2022-11-27T12:11:29.766Z,13.30
2022-11-27T12:14:41.797Z,13.30
2022-11-27T12:21:54.758Z,13.40
2022-11-27T12:24:27.441Z,13.20
2022-11-27T12:27:09.830Z,13.20
2022-11-27T12:30:05.564Z,13.20
2022-11-27T12:32:54.747Z,13.20
2022-11-27T12:35:33.367Z,13.20
2022-11-27T12:38:19.147Z,13.20
2022-11-27T12:41:25.790Z,13.30
2022-11-27T12:44:00.164Z,13.30
2022-11-27T12:46:40.124Z,13.30
2022-11-27T12:49:20.464Z,13.30
2022-11-27T12:51:53.887Z,13.30
2022-11-27T12:54:35.320Z,13.30
2022-11-27T12:57:11.467Z,13.40
2022-11-27T13:00:03.109Z,13.40
2022-11-27T13:03:01.411Z,13.30
2022-11-27T13:05:34.207Z,13.40
2022-11-27T13:08:11.331Z,13.40
2022-11-27T13:10:44.887Z,13.30
2022-11-27T13:13:15.670Z,13.30
2022-11-27T13:15:52.269Z,13.30
2022-11-27T13:18:38.759Z,13.30
2022-11-27T13:21:12.314Z,13.40
2022-11-27T13:23:40.117Z,13.30
2022-11-27T13:26:26.588Z,13.40
2022-11-27T13:28:58.480Z,13.40
2022-11-27T13:31:39.239Z,13.40
2022-11-27T13:34:10.172Z,13.40
2022-11-27T13:36:40.861Z,13.40
2022-11-27T13:39:23.780Z,13.40
2022-11-27T13:42:06.233Z,13.40
2022-11-27T13:44:38.187Z,13.50
2022-11-27T13:47:13.433Z,13.50
2022-11-27T13:49:43.424Z,13.50
2022-11-27T13:52:14.596Z,13.50
2022-11-27T13:54:59.489Z,13.50
2022-11-27T13:57:28.878Z,13.30
2022-11-27T14:00:08.151Z,13.50
2022-11-27T14:02:41.679Z,13.50
2022-11-27T14:05:10.467Z,13.40
2022-11-27T14:07:41.658Z,13.40
2022-11-27T14:10:23.356Z,13.50
2022-11-27T14:13:02.502Z,13.40
2022-11-27T14:15:33.125Z,13.40
2022-11-27T14:18:22.075Z,13.40
2022-11-27T14:21:01.934Z,13.40
2022-11-27T14:23:36.141Z,13.40
2022-11-27T14:26:15.164Z,13.40
2022-11-27T14:28:48.530Z,13.40
2022-11-27T14:31:33.985Z,13.30
2022-11-27T14:34:20.835Z,13.30
2022-11-27T14:36:53.043Z,13.30
2022-11-27T14:39:31.212Z,13.30
2022-11-27T14:42:04.851Z,13.20
2022-11-27T14:44:33.144Z,13.20
2022-11-27T14:47:22.873Z,13.20
2022-11-27T14:49:56.128Z,13.20
2022-11-27T14:52:24.537Z,13.20
2022-11-27T14:54:53.211Z,13.20
2022-11-27T14:57:25.374Z,13.20
2022-11-27T15:00:18.384Z,13.10
2022-11-27T15:02:49.106Z,13.10
2022-11-27T15:05:21.559Z,13.10
2022-11-27T15:07:53.160Z,13.10
2022-11-27T15:10:25.572Z,13.10
2022-11-27T15:12:53.710Z,13.10
2022-11-27T15:15:27.616Z,13.10
2022-11-27T15:17:58.444Z,13.00
2022-11-27T15:20:46.381Z,13.00
2022-11-27T15:23:32.219Z,13.00
2022-11-27T15:25:59.759Z,13.00
2022-11-27T15:28:40.876Z,13.00
2022-11-27T15:31:50.318Z,12.90
2022-11-27T15:34:18.149Z,12.90
2022-11-27T15:36:49.743Z,12.90
2022-11-27T15:39:38.046Z,12.90
2022-11-27T15:42:09.933Z,12.90
2022-11-27T15:44:38.736Z,12.80
2022-11-27T15:47:18.721Z,12.80
2022-11-27T15:49:46.396Z,12.80
2022-11-27T15:52:14.030Z,12.80
2022-11-27T15:54:42.004Z,12.80
2022-11-27T15:57:09.989Z,12.80
2022-11-27T15:59:37.834Z,12.70
2022-11-27T16:02:06.192Z,12.70
2022-11-27T16:04:36.845Z,12.70
2022-11-27T16:07:08.240Z,12.70
2022-11-27T16:09:39.880Z,12.70
2022-11-27T16:12:07.638Z,12.60
2022-11-27T16:14:35.332Z,12.60
2022-11-27T16:17:02.967Z,12.60
2022-11-27T16:19:30.744Z,12.60
2022-11-27T16:21:58.660Z,12.60
2022-11-27T16:24:30.205Z,12.50
2022-11-27T16:27:00.204Z,12.50
2022-11-27T16:29:28.109Z,12.50
2022-11-27T16:31:57.052Z,12.40
2022-11-27T16:34:24.997Z,12.40
2022-11-27T16:36:53.733Z,12.40
2022-11-27T16:39:21.619Z,12.30
2022-11-27T16:41:49.488Z,12.30
2022-11-27T16:44:19.388Z,12.30
2022-11-27T16:46:47.262Z,12.20
2022-11-27T16:49:14.981Z,12.20
2022-11-27T16:51:43.910Z,12.10
2022-11-27T16:54:13.285Z,12.10
2022-11-27T16:56:43.392Z,12.10
2022-11-27T16:59:15.089Z,12.00
2022-11-27T17:01:44.642Z,12.00
2022-11-27T17:04:18.883Z,12.00
2022-11-27T17:06:48.362Z,12.00
2022-11-27T17:09:17.205Z,12.00
2022-11-27T17:11:48.977Z,12.00
2022-11-27T17:14:17.466Z,11.90
2022-11-27T17:16:45.510Z,11.90
2022-11-27T17:19:16.282Z,11.80
2022-11-27T17:21:46.439Z,11.80
2022-11-27T17:24:16.473Z,11.80
2022-11-27T17:26:48.181Z,11.70
2022-11-27T17:29:19.541Z,11.80
2022-11-27T17:31:47.665Z,11.70
2022-11-27T17:34:16.869Z,11.70
2022-11-27T17:36:45.738Z,11.70
2022-11-27T17:39:15.556Z,11.60
2022-11-27T17:41:45.232Z,11.60
2022-11-27T17:44:13.433Z,11.60
2022-11-27T17:46:41.504Z,11.50
2022-11-27T17:49:10.699Z,11.50
2022-11-27T17:51:41.316Z,11.40
2022-11-27T17:54:11.346Z,11.40
2022-11-27T17:56:39.727Z,11.40
2022-11-27T17:59:09.302Z,11.30
2022-11-27T18:01:37.664Z,11.30
2022-11-27T18:04:06.234Z,11.30
2022-11-27T18:06:34.542Z,11.30
2022-11-27T18:09:03.613Z,11.20
2022-11-27T18:11:33.823Z,11.20
2022-11-27T18:14:02.111Z,11.20
2022-11-27T18:16:36.982Z,11.20
2022-11-27T18:19:07.586Z,11.20
2022-11-27T18:21:36.548Z,11.10
2022-11-27T18:24:23.605Z,11.20
2022-11-27T18:27:10.761Z,10.70
2022-11-27T18:29:41.373Z,11.30
2022-11-27T18:32:09.629Z,11.40
2022-11-27T18:34:37.576Z,11.40
2022-11-27T18:37:06.099Z,11.40
2022-11-27T18:39:35.565Z,11.40
2022-11-27T18:42:05.136Z,11.50
2022-11-27T18:44:41.198Z,11.50
2022-11-27T18:47:14.060Z,11.50
2022-11-27T18:49:43.530Z,11.50
2022-11-27T18:52:11.946Z,11.50
2022-11-27T18:54:39.895Z,11.50
2022-11-27T18:57:10.298Z,11.50
2022-11-27T18:59:40.438Z,11.50
2022-11-27T19:02:09.865Z,11.50
2022-11-27T19:04:37.819Z,11.40
2022-11-27T19:07:05.770Z,11.40
2022-11-27T19:09:33.906Z,11.40
2022-11-27T19:12:02.155Z,11.40
2022-11-27T19:14:31.020Z,11.30
2022-11-27T19:17:00.424Z,11.30
2022-11-27T19:22:20.705Z,11.20
2022-11-27T19:24:48.597Z,11.10
2022-11-27T19:27:16.252Z,11.10
2022-11-27T19:29:44.160Z,11.10
2022-11-27T19:32:11.981Z,11.00
2022-11-27T19:34:40.065Z,11.00
2022-11-27T19:37:08.773Z,11.00
2022-11-27T19:39:36.520Z,11.00
2022-11-27T19:42:06.751Z,11.00
2022-11-27T19:44:35.226Z,11.00
2022-11-27T19:47:03.855Z,11.00
2022-11-27T19:49:31.908Z,11.00
2022-11-27T19:52:00.343Z,11.00
2022-11-27T19:54:29.727Z,11.00
2022-11-27T19:56:57.868Z,11.00
2022-11-27T19:59:26.481Z,11.00
2022-11-27T20:01:55.802Z,10.90
2022-11-27T20:04:29.035Z,10.90
2022-11-27T20:06:56.919Z,10.90
2022-11-27T20:09:24.672Z,10.90
2022-11-27T20:11:52.512Z,10.80
2022-11-27T20:14:20.252Z,10.80
2022-11-27T20:16:48.192Z,10.80
2022-11-27T20:19:16.075Z,10.80
2022-11-27T20:21:45.735Z,10.80
2022-11-27T20:24:14.467Z,10.80
2022-11-27T20:26:43.285Z,10.80
2022-11-27T20:29:15.725Z,10.90
2022-11-27T20:31:45.014Z,11.00
2022-11-27T20:34:21.588Z,10.90
2022-11-27T20:36:49.751Z,11.00
2022-11-27T20:39:21.273Z,11.10
2022-11-27T20:41:51.917Z,11.20
2022-11-27T20:44:20.288Z,11.30
2022-11-27T20:46:48.776Z,11.40
2022-11-27T20:49:17.919Z,11.50
2022-11-27T20:51:48.915Z,11.50
2022-11-27T20:54:19.936Z,11.50
2022-11-27T20:56:51.062Z,11.50
2022-11-27T20:59:20.082Z,11.40
2022-11-27T21:01:49.089Z,11.30
2022-11-27T21:04:26.228Z,11.30
2022-11-27T21:06:54.526Z,11.20
2022-11-27T21:09:22.393Z,11.10
2022-11-27T21:11:50.188Z,11.00
2022-11-27T21:14:18.596Z,10.90
2022-11-27T21:16:49.287Z,10.90
2022-11-27T23:32:36.706Z,10.10
2022-11-27T23:35:04.539Z,10.10
2022-11-27T23:37:32.420Z,10.00
2022-11-27T23:40:00.226Z,10.00
2022-11-27T23:42:27.955Z,10.10
2022-11-27T23:44:55.631Z,9.80
2022-11-27T23:47:23.381Z,9.80
2022-11-27T23:49:51.049Z,9.70
2022-11-27T23:52:18.682Z,9.70
2022-11-27T23:54:46.515Z,9.60
2022-11-27T23:57:14.304Z,9.50
2022-11-27T23:59:41.948Z,9.50
